Koun Maru — JK5556 — position and weather

sailwx.info

Track history (hours):
 
Tides and Currents Weather Stations Pressure Air Temp Water Temp Dewpoint Dewpoint Depression Visibility Wind Speed Wind Dir Waves Ship Positions

Koun Maru

Last reported at 2018-Jul-15 06:40 UTC. Time now 2018-Jul-15 20:59 UTC.
Position N 34°37' E 135°26'.

Length 40 m.

Type: Tanker. MMSI: 431401871.

Date/timePositionNaut miles runAvg speedWind from/ knotsBaromVisibWave heightAir tempDewpointWater temp
2018-Jul-15 06:40N 34°37' E 135°26'1 8.0
2018-Jul-15 06:30N 34°36' E 135°24'3 1.3
2018-Jul-15 04:09N 34°33' E 135°25'210.2
2018-Jul-15 03:56N 34°33' E 135°23'610.4
2018-Jul-15 03:19N 34°29' E 135°16'310.3
2018-Jul-15 03:00N 34°27' E 135°13'510.3
2018-Jul-15 02:28N 34°23' E 135°09'510.1
2018-Jul-15 01:59N 34°19' E 135°05'5 9.6
2018-Jul-15 01:29N 34°15' E 135°04'7 2.5
2018-Jul-14 22:48N 34°09' E 135°07'2 6.4
2018-Jul-14 22:25N 34°07' E 135°09'0 0.0
2018-Jul-14 21:59N 34°07' E 135°09'0 0.0
2018-Jul-14 21:02N 34°07' E 135°09'0 0.0
2018-Jul-14 20:50N 34°07' E 135°09'0 0.0
2018-Jul-14 17:20N 34°07' E 135°09'0 0.0
2018-Jul-14 16:50N 34°07' E 135°09'0 0.0
2018-Jul-14 16:11N 34°07' E 135°09'0 0.0
2018-Jul-14 15:53N 34°07' E 135°09'0 0.0
2018-Jul-14 14:32N 34°07' E 135°09'0 0.0
2018-Jul-14 14:29N 34°07' E 135°09'0 0.0
2018-Jul-14 12:14N 34°07' E 135°09'0 0.0
2018-Jul-14 10:17N 34°07' E 135°09'2 6.8
2018-Jul-14 10:00N 34°08' E 135°07'6 8.9
2018-Jul-14 09:20N 34°14' E 135°04'3 8.3
2018-Jul-14 08:59N 34°16' E 135°03'4 8.8
2018-Jul-14 08:30N 34°20' E 135°06'22 5.1
2018-Jul-14 04:08N 34°36' E 135°25'210.7
2018-Jul-14 03:56N 34°36' E 135°23'510.9
2018-Jul-14 03:28N 34°36' E 135°16'510.6
2018-Jul-14 03:00N 34°36' E 135°10'611.0
2018-Jul-14 02:28N 34°36' E 135°03'4 0.2
2018-Jul-13 11:11N 34°36' E 135°08'3 9.4
2018-Jul-13 10:55N 34°36' E 135°11'9 3.2
2018-Jul-13 08:03N 34°31' E 135°20'111.3
2018-Jul-13 07:57N 34°30' E 135°19'1410.8
2018-Jul-13 06:39N 34°21' E 135°07'211.0
2018-Jul-13 06:27N 34°19' E 135°05'410.0
2018-Jul-13 06:00N 34°15' E 135°02'6 8.8
2018-Jul-13 05:19N 34°10' E 134°59'3 7.1
2018-Jul-13 04:57N 34°08' E 134°56'7 0.3
2018-Jul-12 09:51N 34°14' E 135°00'4 8.7
2018-Jul-12 09:23N 34°17' E 135°03'18 3.8
2018-Jul-12 04:37N 34°30' E 135°19'1310.1
2018-Jul-12 03:16N 34°21' E 135°07'3 9.7
2018-Jul-12 03:00N 34°19' E 135°05'4 7.7
2018-Jul-12 02:30N 34°15' E 135°03'610.3
2018-Jul-12 01:55N 34°10' E 135°05'2 0.1
2018-Jul-11 07:33N 34°08' E 135°07'3 8.9
2018-Jul-11 07:13N 34°11' E 135°06'3 8.5
2018-Jul-11 06:54N 34°13' E 135°04'  
2018-Jul-05 18:38N 34°39' E 135°27'110.4
2018-Jul-05 18:30N 34°39' E 135°25'1 1.2
2018-Jul-05 17:41N 34°39' E 135°24'0 0.0
2018-Jul-05 17:29N 34°39' E 135°24'0 0.0
2018-Jul-05 16:59N 34°39' E 135°24'0 0.0
2018-Jul-05 15:42N 34°39' E 135°24'1 4.7
2018-Jul-05 15:24N 34°39' E 135°26'1 0.2
2018-Jul-05 10:57N 34°38' E 135°26'1 0.6
2018-Jul-05 09:54N 34°39' E 135°26'  
Track history (hours):
 
Tides and Currents Weather Stations Pressure Air Temp Water Temp Dewpoint Dewpoint Depression Visibility Wind Speed Wind Dir Waves Ship Positions

Koun Maru

Last reported at 2018-Jul-15 06:40 UTC. Time now 2018-Jul-15 20:59 UTC.
Position N 34°37' E 135°26'.

Length 40 m.

Type: Tanker. MMSI: 431401871.

Date/timePositionNaut miles runAvg speedWind from/ knotsBaromVisibWave heightAir tempDewpointWater temp
2018-Jul-15 06:40N 34°37' E 135°26'1 8.0
2018-Jul-15 06:30N 34°36' E 135°24'3 1.3
2018-Jul-15 04:09N 34°33' E 135°25'210.2
2018-Jul-15 03:56N 34°33' E 135°23'610.4
2018-Jul-15 03:19N 34°29' E 135°16'310.3
2018-Jul-15 03:00N 34°27' E 135°13'510.3
2018-Jul-15 02:28N 34°23' E 135°09'510.1
2018-Jul-15 01:59N 34°19' E 135°05'5 9.6
2018-Jul-15 01:29N 34°15' E 135°04'7 2.5
2018-Jul-14 22:48N 34°09' E 135°07'2 6.4
2018-Jul-14 22:25N 34°07' E 135°09'0 0.0
2018-Jul-14 21:59N 34°07' E 135°09'0 0.0
2018-Jul-14 21:02N 34°07' E 135°09'0 0.0
2018-Jul-14 20:50N 34°07' E 135°09'0 0.0
2018-Jul-14 17:20N 34°07' E 135°09'0 0.0
2018-Jul-14 16:50N 34°07' E 135°09'0 0.0
2018-Jul-14 16:11N 34°07' E 135°09'0 0.0
2018-Jul-14 15:53N 34°07' E 135°09'0 0.0
2018-Jul-14 14:32N 34°07' E 135°09'0 0.0
2018-Jul-14 14:29N 34°07' E 135°09'0 0.0
2018-Jul-14 12:14N 34°07' E 135°09'0 0.0
2018-Jul-14 10:17N 34°07' E 135°09'2 6.8
2018-Jul-14 10:00N 34°08' E 135°07'6 8.9
2018-Jul-14 09:20N 34°14' E 135°04'3 8.3
2018-Jul-14 08:59N 34°16' E 135°03'4 8.8
2018-Jul-14 08:30N 34°20' E 135°06'22 5.1
2018-Jul-14 04:08N 34°36' E 135°25'210.7
2018-Jul-14 03:56N 34°36' E 135°23'510.9
2018-Jul-14 03:28N 34°36' E 135°16'510.6
2018-Jul-14 03:00N 34°36' E 135°10'611.0
2018-Jul-14 02:28N 34°36' E 135°03'4 0.2
2018-Jul-13 11:11N 34°36' E 135°08'3 9.4
2018-Jul-13 10:55N 34°36' E 135°11'9 3.2
2018-Jul-13 08:03N 34°31' E 135°20'111.3
2018-Jul-13 07:57N 34°30' E 135°19'1410.8
2018-Jul-13 06:39N 34°21' E 135°07'211.0
2018-Jul-13 06:27N 34°19' E 135°05'410.0
2018-Jul-13 06:00N 34°15' E 135°02'6 8.8
2018-Jul-13 05:19N 34°10' E 134°59'3 7.1
2018-Jul-13 04:57N 34°08' E 134°56'7 0.3
2018-Jul-12 09:51N 34°14' E 135°00'4 8.7
2018-Jul-12 09:23N 34°17' E 135°03'18 3.8
2018-Jul-12 04:37N 34°30' E 135°19'1310.1
2018-Jul-12 03:16N 34°21' E 135°07'3 9.7
2018-Jul-12 03:00N 34°19' E 135°05'4 7.7
2018-Jul-12 02:30N 34°15' E 135°03'610.3
2018-Jul-12 01:55N 34°10' E 135°05'2 0.1
2018-Jul-11 07:33N 34°08' E 135°07'3 8.9
2018-Jul-11 07:13N 34°11' E 135°06'3 8.5
2018-Jul-11 06:54N 34°13' E 135°04'  
2018-Jul-05 18:38N 34°39' E 135°27'110.4
2018-Jul-05 18:30N 34°39' E 135°25'1 1.2
2018-Jul-05 17:41N 34°39' E 135°24'0 0.0
2018-Jul-05 17:29N 34°39' E 135°24'0 0.0
2018-Jul-05 16:59N 34°39' E 135°24'0 0.0
2018-Jul-05 15:42N 34°39' E 135°24'1 4.7
2018-Jul-05 15:24N 34°39' E 135°26'1 0.2
2018-Jul-05 10:57N 34°38' E 135°26'1 0.6
2018-Jul-05 09:54N 34°39' E 135°26'  

Dump ship's entire track history